Time;durP1;ratioP1;P1;durP2;ratioP2;P2;SDS_P1;SDS_P2;PMS_P1;PMS_P2;Temp;Humidity;BMP_temperature;BMP_pressure;BME280_temperature;BME280_humidity;BME280_pressure;Samples;Min_cycle;Max_cycle;Signal;HPM_P1;HPM_P2
2023/04/25 00:00:48;;;;;;;21.27;4.25;;;6.40;99.90;;;;;;4961898;28;20055;-82
2023/04/25 00:03:14;;;;;;;25.73;4.72;;;6.30;99.90;;;;;;4961984;28;20051;-82
2023/04/25 00:05:43;;;;;;;20.38;3.65;;;7.50;99.90;;;;;;4958614;28;20134;-81
2023/04/25 00:08:09;;;;;;;24.38;3.92;;;6.40;99.90;;;;;;4926168;28;20095;-81
2023/04/25 00:10:35;;;;;;;26.35;4.70;;;9.00;99.90;;;;;;4963764;28;20046;-82
2023/04/25 00:13:02;;;;;;;23.10;3.67;;;6.10;99.90;;;;;;4958705;28;20050;-82
2023/04/25 00:15:30;;;;;;;27.50;4.47;;;8.70;99.90;;;;;;4961976;28;20059;-81
2023/04/25 00:17:56;;;;;;;25.65;4.15;;;6.40;99.90;;;;;;4962689;28;20121;-82
2023/04/25 00:20:23;;;;;;;24.75;4.38;;;6.30;99.90;;;;;;4960201;28;20593;-82
2023/04/25 00:22:49;;;;;;;23.30;4.55;;;6.40;99.90;;;;;;4942210;29;20098;-82
2023/04/25 00:25:16;;;;;;;18.55;3.53;;;6.20;99.90;;;;;;4958809;28;20059;-82
2023/04/25 00:27:41;;;;;;;19.75;3.33;;;6.00;99.90;;;;;;4962209;28;20082;-82
2023/04/25 00:30:08;;;;;;;19.02;3.75;;;6.70;99.90;;;;;;4962655;28;20140;-81
2023/04/25 00:32:37;;;;;;;19.17;3.90;;;6.30;99.90;;;;;;4959038;28;20046;-82
2023/04/25 00:35:02;;;;;;;20.20;3.75;;;5.90;99.90;;;;;;4958971;28;20404;-81
2023/04/25 00:37:28;;;;;;;20.02;3.25;;;6.30;99.90;;;;;;4966953;28;20407;-82
2023/04/25 00:39:55;;;;;;;20.92;3.60;;;8.10;99.90;;;;;;4967953;28;20053;-82
2023/04/25 00:42:21;;;;;;;21.02;3.38;;;6.30;99.90;;;;;;4969084;28;20058;-81
2023/04/25 00:44:51;;;;;;;13.18;2.40;;;6.90;99.90;;;;;;4971893;28;20098;-81
2023/04/25 00:47:17;;;;;;;18.27;3.10;;;6.50;99.90;;;;;;4971000;28;20105;-81
2023/04/25 00:49:42;;;;;;;18.35;2.40;;;6.20;99.90;;;;;;4952019;28;20491;-82
2023/04/25 00:52:08;;;;;;;16.52;3.08;;;6.10;99.90;;;;;;4972423;28;20061;-81
2023/04/25 00:54:34;;;;;;;12.57;2.55;;;7.50;99.90;;;;;;4931972;28;20479;-81
2023/04/25 00:57:00;;;;;;;13.73;2.42;;;7.40;99.90;;;;;;4964245;28;20062;-81
2023/04/25 00:59:28;;;;;;;13.20;2.80;;;6.10;99.90;;;;;;4966133;28;20055;-82
2023/04/25 01:01:54;;;;;;;16.55;2.70;;;8.30;99.90;;;;;;4950598;28;20573;-81
2023/04/25 01:04:21;;;;;;;18.95;2.78;;;6.00;99.90;;;;;;4966562;28;20055;-81
2023/04/25 01:06:46;;;;;;;17.00;3.72;;;6.00;99.90;;;;;;4968839;28;20043;-81
2023/04/25 01:09:13;;;;;;;20.50;3.33;;;6.00;99.90;;;;;;4963029;28;20885;-82
2023/04/25 01:11:40;;;;;;;20.35;3.00;;;5.70;99.90;;;;;;4968340;28;20055;-82
2023/04/25 01:14:05;;;;;;;17.90;3.88;;;8.10;99.90;;;;;;4968754;28;20065;-82
2023/04/25 01:16:33;;;;;;;17.95;2.80;;;5.80;99.90;;;;;;4965524;28;20121;-82
2023/04/25 01:18:59;;;;;;;14.23;3.30;;;6.00;99.90;;;;;;4965272;28;20083;-82
2023/04/25 01:21:27;;;;;;;16.95;3.50;;;8.60;99.90;;;;;;4965496;28;20066;-82
2023/04/25 01:23:53;;;;;;;16.77;3.03;;;5.90;99.90;;;;;;4967999;28;20134;-81
2023/04/25 01:26:21;;;;;;;15.73;2.72;;;5.90;99.90;;;;;;4966744;28;20051;-81
2023/04/25 01:28:48;;;;;;;14.77;2.80;;;8.50;99.90;;;;;;4948486;29;20125;-81
2023/04/25 01:31:15;;;;;;;18.30;3.22;;;5.80;99.90;;;;;;4964450;28;20054;-81
2023/04/25 01:33:41;;;;;;;13.85;3.17;;;8.40;99.90;;;;;;4968056;28;20054;-81
2023/04/25 01:36:07;;;;;;;15.75;3.63;;;5.30;99.90;;;;;;4975662;28;20466;-80
2023/04/25 01:38:33;;;;;;;14.52;2.75;;;5.80;99.90;;;;;;4963683;28;20063;-81
2023/04/25 01:40:58;;;;;;;13.75;3.03;;;8.40;99.90;;;;;;4963895;28;20139;-82
2023/04/25 01:43:26;;;;;;;19.75;2.70;;;6.90;99.90;;;;;;4963995;28;20138;-82
2023/04/25 01:45:52;;;;;;;15.23;2.83;;;5.80;99.90;;;;;;4968523;28;20051;-82
2023/04/25 01:48:17;;;;;;;15.85;2.22;;;8.10;99.90;;;;;;4966615;28;20137;-82
2023/04/25 01:50:45;;;;;;;21.30;2.80;;;6.90;99.90;;;;;;4971683;28;20398;-82
2023/04/25 01:53:13;;;;;;;17.48;2.72;;;8.20;99.90;;;;;;4961709;28;20059;-82
2023/04/25 01:55:38;;;;;;;16.90;2.95;;;5.70;99.90;;;;;;4987110;28;20094;-82
2023/04/25 01:58:09;;;;;;;19.48;3.53;;;5.50;99.90;;;;;;4963391;28;20169;-82
2023/04/25 02:00:37;;;;;;;14.15;2.70;;;7.70;99.90;;;;;;4959505;28;20051;-82
2023/04/25 02:03:03;;;;;;;11.90;2.20;;;6.30;99.90;;;;;;4962571;28;20521;-82
2023/04/25 02:05:34;;;;;;;23.02;2.63;;;5.70;99.90;;;;;;4959211;28;20142;-82
2023/04/25 02:08:00;;;;;;;16.77;2.50;;;5.50;99.90;;;;;;4948839;28;20053;-83
2023/04/25 02:10:29;;;;;;;14.85;2.85;;;5.70;99.90;;;;;;4958196;28;20066;-81
2023/04/25 02:12:58;;;;;;;17.48;2.85;;;5.60;99.90;;;;;;4946093;28;20047;-82
2023/04/25 02:15:24;;;;;;;15.32;2.72;;;5.60;99.90;;;;;;4960839;28;20047;-82
2023/04/25 02:17:52;;;;;;;14.52;2.88;;;5.60;99.90;;;;;;4965467;28;20050;-81
2023/04/25 02:20:21;;;;;;;13.40;2.00;;;5.50;99.90;;;;;;4963121;28;20047;-81
2023/04/25 02:22:47;;;;;;;15.57;2.45;;;5.50;99.90;;;;;;4967260;28;20121;-81
2023/04/25 02:25:13;;;;;;;11.57;1.83;;;7.60;99.90;;;;;;4972772;28;20051;-83
2023/04/25 02:27:39;;;;;;;17.73;2.25;;;5.60;99.90;;;;;;4963601;28;20083;-82
2023/04/25 02:30:06;;;;;;;15.70;2.97;;;5.40;99.90;;;;;;4970469;28;20058;-82
2023/04/25 02:32:34;;;;;;;14.45;2.88;;;5.70;99.90;;;;;;4945368;28;20102;-83
2023/04/25 02:35:03;;;;;;;15.02;2.65;;;5.60;99.90;;;;;;4967597;28;20498;-82
2023/04/25 02:37:30;;;;;;;19.50;2.95;;;7.80;99.90;;;;;;4960010;28;20057;-82
2023/04/25 02:40:05;;;;;;;26.15;4.35;;;5.60;99.90;;;;;;4963237;28;20059;-82
2023/04/25 02:42:31;;;;;;;17.48;2.60;;;5.70;99.90;;;;;;4961959;28;20077;-82
2023/04/25 02:44:59;;;;;;;14.90;2.50;;;5.70;99.90;;;;;;4962838;28;20075;-82
2023/04/25 02:47:25;;;;;;;12.48;2.08;;;5.70;99.90;;;;;;4961260;28;20062;-82
2023/04/25 02:49:51;;;;;;;19.83;3.30;;;5.70;99.90;;;;;;4946865;28;20053;-82
2023/04/25 02:52:17;;;;;;;12.32;1.77;;;5.60;99.90;;;;;;4955578;28;20047;-82
2023/04/25 02:54:44;;;;;;;19.13;2.38;;;5.70;99.90;;;;;;4962023;28;20057;-82
2023/04/25 02:57:10;;;;;;;21.52;3.05;;;5.70;99.90;;;;;;4930971;29;20047;-82
2023/04/25 02:59:36;;;;;;;14.95;2.88;;;5.70;99.90;;;;;;4962656;28;20460;-82
2023/04/25 03:02:02;;;;;;;15.45;2.35;;;5.60;99.90;;;;;;4963060;28;20109;-82
2023/04/25 03:04:28;;;;;;;14.07;2.47;;;5.60;99.90;;;;;;4953574;28;20050;-82
2023/04/25 03:06:53;;;;;;;17.25;2.58;;;5.50;99.90;;;;;;4961263;28;20051;-82
2023/04/25 03:09:19;;;;;;;11.02;2.67;;;5.50;99.90;;;;;;4960878;28;20097;-82
2023/04/25 03:11:46;;;;;;;11.38;2.53;;;5.50;99.90;;;;;;4951366;28;20117;-82
2023/04/25 03:14:12;;;;;;;13.55;2.58;;;6.90;99.90;;;;;;4959203;28;20047;-81
2023/04/25 03:16:38;;;;;;;14.07;1.98;;;5.50;99.90;;;;;;4961997;28;20055;-82
2023/04/25 03:19:04;;;;;;;9.23;1.67;;;5.40;99.90;;;;;;4930704;28;20059;-82
2023/04/25 03:21:34;;;;;;;14.07;1.88;;;7.80;99.90;;;;;;4962138;28;20062;-82
2023/04/25 03:24:02;;;;;;;11.52;1.92;;;5.50;99.90;;;;;;4959716;28;20423;-82
2023/04/25 03:26:27;;;;;;;8.70;2.47;;;5.30;99.90;;;;;;4965275;28;20054;-82
2023/04/25 03:28:57;;;;;;;10.07;2.47;;;5.50;99.90;;;;;;4964048;28;20415;-82
2023/04/25 03:31:22;;;;;;;14.52;1.85;;;5.40;99.90;;;;;;4959132;28;20059;-83
2023/04/25 03:33:48;;;;;;;17.00;1.95;;;5.40;99.90;;;;;;4965478;28;20046;-82
2023/04/25 03:36:14;;;;;;;13.77;2.00;;;5.40;99.90;;;;;;4957166;28;20055;-83
2023/04/25 03:38:41;;;;;;;14.25;1.77;;;5.10;99.90;;;;;;4962158;28;20085;-83
2023/04/25 03:41:07;;;;;;;8.82;1.90;;;7.20;99.90;;;;;;4962221;28;20059;-83
2023/04/25 03:43:32;;;;;;;12.48;1.88;;;5.20;99.90;;;;;;4958500;28;20047;-83
2023/04/25 03:45:58;;;;;;;11.43;2.38;;;5.30;99.90;;;;;;4963060;28;20097;-82
2023/04/25 03:48:26;;;;;;;6.05;1.13;;;7.70;99.90;;;;;;4962687;28;20054;-82
2023/04/25 03:50:52;;;;;;;8.75;2.03;;;5.30;99.90;;;;;;4959261;28;20055;-83
2023/04/25 03:53:18;;;;;;;15.93;1.98;;;5.30;99.90;;;;;;4962675;28;20055;-83
2023/04/25 03:55:44;;;;;;;14.15;2.03;;;6.40;99.90;;;;;;4960371;28;20051;-82
2023/04/25 03:58:09;;;;;;;12.40;2.08;;;5.10;99.90;;;;;;4958443;28;20051;-82
2023/04/25 04:00:35;;;;;;;8.75;1.50;;;7.20;99.90;;;;;;4962263;28;20043;-82
2023/04/25 04:03:01;;;;;;;13.02;1.70;;;5.20;99.90;;;;;;4967336;28;20495;-83
2023/04/25 04:05:27;;;;;;;9.55;1.10;;;5.10;99.90;;;;;;4964794;28;20054;-83
2023/04/25 04:07:53;;;;;;;12.95;2.17;;;5.10;99.90;;;;;;4958321;28;20086;-83
2023/04/25 04:10:19;;;;;;;11.13;1.92;;;7.30;99.90;;;;;;4960106;28;20448;-83
2023/04/25 04:12:45;;;;;;;13.57;1.83;;;5.10;99.90;;;;;;4945031;28;20427;-83
2023/04/25 04:15:11;;;;;;;11.88;1.58;;;7.10;99.90;;;;;;4956146;28;20048;-83
2023/04/25 04:17:37;;;;;;;8.13;1.65;;;5.50;99.90;;;;;;4960888;28;20130;-83
2023/04/25 04:20:04;;;;;;;12.95;1.63;;;7.20;99.90;;;;;;4961944;28;20459;-83
2023/04/25 04:22:29;;;;;;;9.02;1.35;;;5.10;99.90;;;;;;4961361;28;20078;-83
2023/04/25 04:24:56;;;;;;;12.13;2.75;;;7.10;99.90;;;;;;4959401;28;20139;-82
2023/04/25 04:27:23;;;;;;;9.88;2.08;;;4.70;99.90;;;;;;4962130;28;20058;-82
2023/04/25 04:29:50;;;;;;;14.60;1.80;;;5.40;99.90;;;;;;4960397;28;20050;-83
2023/04/25 04:32:17;;;;;;;7.90;1.90;;;6.90;99.90;;;;;;4959893;28;20058;-83
2023/04/25 04:34:43;;;;;;;13.45;1.50;;;4.80;99.90;;;;;;4960592;28;20064;-83
2023/04/25 04:37:09;;;;;;;12.57;1.52;;;4.80;99.90;;;;;;4958914;28;20042;-82
2023/04/25 04:39:36;;;;;;;10.43;1.67;;;4.60;99.90;;;;;;4941597;28;20053;-82
2023/04/25 04:42:03;;;;;;;10.60;1.60;;;7.40;99.90;;;;;;4960460;28;20132;-81
2023/04/25 04:44:32;;;;;;;12.07;2.42;;;4.60;99.90;;;;;;4944824;28;20055;-82
2023/04/25 04:47:00;;;;;;;12.30;2.00;;;4.90;99.90;;;;;;4953162;28;20050;-82
2023/04/25 04:49:26;;;;;;;15.43;1.85;;;4.80;99.90;;;;;;4962053;28;20054;-82
2023/04/25 04:51:52;;;;;;;15.60;3.00;;;4.70;99.90;;;;;;4961014;28;20051;-82
2023/04/25 04:54:18;;;;;;;13.32;2.92;;;7.10;99.90;;;;;;4959021;28;20040;-82
2023/04/25 04:56:43;;;;;;;12.07;2.33;;;6.90;99.90;;;;;;4961732;28;20154;-82
2023/04/25 04:59:09;;;;;;;7.97;1.48;;;4.60;99.90;;;;;;4959567;28;20101;-82
2023/04/25 05:01:35;;;;;;;9.50;1.88;;;7.00;99.90;;;;;;4941019;28;20542;-81
2023/04/25 05:04:02;;;;;;;9.13;1.42;;;3.90;99.90;;;;;;4961524;28;20514;-82
2023/04/25 05:06:29;;;;;;;25.15;1.98;;;4.50;99.90;;;;;;4945347;29;20135;-82
2023/04/25 05:08:55;;;;;;;8.88;1.45;;;5.80;99.90;;;;;;4944413;28;20125;-82
2023/04/25 05:11:22;;;;;;;10.48;1.95;;;4.70;99.90;;;;;;4961863;28;20494;-81
2023/04/25 05:13:47;;;;;;;11.07;1.50;;;4.70;99.90;;;;;;4959573;28;20078;-81
2023/04/25 05:16:42;;;;;;;8.10;1.50;;;4.60;99.90;;;;;;4960013;28;20533;-81
2023/04/25 05:19:14;;;;;;;13.43;1.70;;;4.80;99.90;;;;;;4949361;28;20400;-81
2023/04/25 05:21:40;;;;;;;11.30;2.10;;;4.80;99.90;;;;;;4956247;28;20188;-81
2023/04/25 05:24:05;;;;;;;11.40;1.60;;;4.90;99.90;;;;;;4964638;28;20051;-81
2023/04/25 05:26:31;;;;;;;14.63;2.15;;;6.40;99.90;;;;;;4963103;28;20068;-81
2023/04/25 05:29:00;;;;;;;11.70;2.00;;;4.70;99.90;;;;;;4960383;28;20464;-81
2023/04/25 05:31:25;;;;;;;13.63;2.03;;;4.90;99.90;;;;;;4962239;28;20063;-81
2023/04/25 05:33:51;;;;;;;9.93;1.73;;;5.00;99.90;;;;;;4965273;28;20102;-81
2023/04/25 05:36:19;;;;;;;13.40;2.42;;;5.00;99.90;;;;;;4964830;28;20051;-81
2023/04/25 05:38:44;;;;;;;8.43;1.83;;;5.00;99.90;;;;;;4963940;28;20089;-81
2023/04/25 05:41:10;;;;;;;12.93;3.75;;;5.10;99.90;;;;;;4964003;28;20078;-81
2023/04/25 05:43:36;;;;;;;14.90;4.07;;;5.10;99.90;;;;;;4967791;28;20053;-82
2023/04/25 05:46:01;;;;;;;11.52;2.00;;;5.10;99.90;;;;;;4964324;28;20051;-82
2023/04/25 05:48:27;;;;;;;7.25;1.95;;;7.40;99.90;;;;;;4961785;28;20047;-82
2023/04/25 05:50:52;;;;;;;6.25;1.45;;;5.60;99.90;;;;;;4964784;28;20502;-83
2023/04/25 05:53:19;;;;;;;10.30;1.52;;;5.20;99.90;;;;;;4966664;28;20130;-81
2023/04/25 05:55:46;;;;;;;11.52;2.10;;;5.30;99.90;;;;;;4963854;28;20414;-81
2023/04/25 05:58:11;;;;;;;15.02;3.63;;;5.30;99.90;;;;;;4964179;28;20057;-81
2023/04/25 06:00:38;;;;;;;13.30;2.90;;;8.00;99.90;;;;;;4965132;28;20055;-82
2023/04/25 06:03:03;;;;;;;16.63;2.50;;;5.40;99.90;;;;;;4963189;28;20058;-82
2023/04/25 06:05:29;;;;;;;12.98;1.98;;;5.40;99.90;;;;;;4960710;28;20065;-82
2023/04/25 06:07:55;;;;;;;6.03;1.40;;;7.00;99.90;;;;;;4961027;28;20039;-81
2023/04/25 06:10:21;;;;;;;15.38;2.15;;;5.60;99.90;;;;;;4964115;28;20506;-81
2023/04/25 06:12:47;;;;;;;11.13;1.40;;;5.60;99.90;;;;;;4616007;28;10000274;-83
2023/04/25 06:15:12;;;;;;;14.55;2.08;;;5.70;99.90;;;;;;4951547;28;20054;-81
2023/04/25 06:17:38;;;;;;;8.60;1.40;;;5.80;99.90;;;;;;4961950;28;20260;-82
2023/04/25 06:20:04;;;;;;;7.28;1.10;;;5.90;99.90;;;;;;4950444;28;20648;-81
2023/04/25 06:22:30;;;;;;;6.28;1.10;;;5.90;99.90;;;;;;4963019;28;20047;-83
2023/04/25 06:24:58;;;;;;;8.27;2.08;;;5.90;99.90;;;;;;4959228;28;21281;-82
2023/04/25 06:27:24;;;;;;;11.30;1.60;;;5.90;99.90;;;;;;4961334;28;20058;-81
2023/04/25 06:29:51;;;;;;;11.32;1.27;;;5.90;99.90;;;;;;4962930;28;20383;-81
2023/04/25 06:32:18;;;;;;;9.05;1.83;;;5.90;99.90;;;;;;4948922;28;20141;-81
2023/04/25 06:34:43;;;;;;;9.27;0.90;;;8.10;99.90;;;;;;4962442;28;20047;-81
2023/04/25 06:37:09;;;;;;;6.95;1.00;;;8.20;99.90;;;;;;4960790;28;20185;-81
2023/04/25 06:39:35;;;;;;;25.70;2.08;;;7.60;99.90;;;;;;4946411;28;20047;-81
2023/04/25 06:42:00;;;;;;;13.80;1.73;;;5.90;99.90;;;;;;4961667;28;20050;-81
2023/04/25 06:44:29;;;;;;;6.05;0.60;;;6.00;99.90;;;;;;4961726;28;20043;-81
2023/04/25 06:46:54;;;;;;;7.60;1.15;;;6.00;99.90;;;;;;4959406;28;20056;-80
2023/04/25 06:49:20;;;;;;;6.97;1.38;;;5.40;99.90;;;;;;4967769;28;20050;-82
2023/04/25 06:51:45;;;;;;;9.93;1.27;;;6.10;99.90;;;;;;4968491;28;20058;-81
2023/04/25 06:54:11;;;;;;;8.30;0.93;;;7.00;99.90;;;;;;4958498;28;20047;-81
2023/04/25 06:56:37;;;;;;;6.03;0.90;;;8.10;99.90;;;;;;4960781;28;20062;-80
2023/04/25 06:59:02;;;;;;;8.32;0.93;;;8.20;99.90;;;;;;4962333;28;20545;-81
2023/04/25 07:01:28;;;;;;;8.82;1.20;;;7.70;99.90;;;;;;4946128;28;20134;-80
2023/04/25 07:03:54;;;;;;;4.75;0.98;;;6.40;99.90;;;;;;4946572;28;20058;-81
2023/04/25 07:06:19;;;;;;;9.90;1.38;;;6.40;99.90;;;;;;4966265;28;20061;-81
2023/04/25 07:08:45;;;;;;;7.80;2.08;;;6.40;99.90;;;;;;4961412;28;20057;-81
2023/04/25 07:11:11;;;;;;;11.27;2.15;;;6.40;99.90;;;;;;4959137;28;20142;-81
2023/04/25 07:13:36;;;;;;;9.00;1.23;;;6.40;99.90;;;;;;4975251;28;20094;-81
2023/04/25 07:16:03;;;;;;;9.93;1.85;;;8.30;99.90;;;;;;4961045;28;20077;-81
2023/04/25 07:18:28;;;;;;;8.68;1.00;;;6.40;99.90;;;;;;4946651;28;20096;-81
2023/04/25 07:20:54;;;;;;;12.05;1.17;;;6.50;99.90;;;;;;4964079;28;20078;-81
2023/04/25 07:23:20;;;;;;;12.93;1.60;;;6.50;99.90;;;;;;4968969;28;20113;-81
2023/04/25 07:25:46;;;;;;;4.28;0.90;;;6.60;99.90;;;;;;4963603;28;20380;-81
2023/04/25 07:28:11;;;;;;;7.03;1.08;;;7.60;99.90;;;;;;4961887;28;20047;-81
2023/04/25 07:30:37;;;;;;;8.48;1.60;;;6.70;99.90;;;;;;4963792;28;20050;-81
2023/04/25 07:33:02;;;;;;;6.07;0.95;;;6.70;99.90;;;;;;4943985;28;20102;-81
2023/04/25 07:35:28;;;;;;;9.95;1.20;;;6.80;99.90;;;;;;4948866;28;20089;-82
2023/04/25 07:37:53;;;;;;;7.53;1.35;;;6.80;99.90;;;;;;4962275;28;20070;-82
2023/04/25 07:40:19;;;;;;;11.45;1.83;;;8.00;99.90;;;;;;4931632;28;20055;-82
2023/04/25 07:42:45;;;;;;;12.73;2.50;;;8.90;99.90;;;;;;4944903;28;20403;-82
2023/04/25 07:45:11;;;;;;;11.82;0.82;;;8.40;99.90;;;;;;4946011;28;20105;-82
2023/04/25 07:47:36;;;;;;;7.20;0.90;;;7.60;99.90;;;;;;4960956;28;20446;-82
2023/04/25 07:50:05;;;;;;;7.88;0.77;;;9.10;99.90;;;;;;4942838;28;20054;-81
2023/04/25 07:52:47;;;;;;;;;;;;;;;;;;;;;
2023/04/25 07:55:31;;;;;;;3.30;0.38;;;6.80;99.90;;;;;;4961606;28;20459;-81
2023/04/25 07:57:57;;;;;;;4.78;0.77;;;;;;;;;;4927532;28;20050;-81
2023/04/25 08:00:39;;;;;;;5.65;1.00;;;6.80;99.90;;;;;;4957544;28;20139;-81
2023/04/25 08:03:06;;;;;;;5.78;0.90;;;;;;;;;;4944138;28;20047;-81
2023/04/25 08:05:31;;;;;;;8.02;1.67;;;6.80;99.90;;;;;;4961827;28;20561;-82
2023/04/25 08:07:57;;;;;;;8.18;1.20;;;5.90;99.90;;;;;;4960972;28;20066;-82
2023/04/25 08:10:23;;;;;;;6.68;1.15;;;8.50;99.90;;;;;;4946588;28;20486;-81
2023/04/25 08:12:49;;;;;;;7.25;1.10;;;6.80;99.90;;;;;;4962606;28;20519;-82
2023/04/25 08:15:15;;;;;;;7.25;1.13;;;7.00;99.90;;;;;;4961783;28;20046;-82
2023/04/25 08:17:40;;;;;;;7.40;0.82;;;6.70;99.90;;;;;;4961915;28;20137;-82
2023/04/25 08:20:07;;;;;;;3.65;0.80;;;6.90;99.90;;;;;;4942683;28;20054;-82
2023/04/25 08:22:33;;;;;;;3.90;0.90;;;7.00;99.90;;;;;;4957709;28;20055;-82
2023/04/25 08:24:59;;;;;;;4.95;0.40;;;7.00;99.90;;;;;;4966828;28;20089;-82
2023/04/25 08:27:25;;;;;;;14.20;1.50;;;9.10;99.90;;;;;;4954657;28;20047;-82
2023/04/25 08:29:51;;;;;;;3.20;0.57;;;6.70;99.90;;;;;;4944918;28;20557;-82
2023/04/25 08:32:16;;;;;;;3.63;0.80;;;9.20;99.90;;;;;;4956976;28;20075;-82
2023/04/25 08:34:43;;;;;;;3.97;0.43;;;9.00;99.90;;;;;;4948676;28;20498;-82
2023/04/25 08:37:09;;;;;;;4.57;0.57;;;6.50;99.90;;;;;;4942214;28;20067;-82
2023/04/25 08:39:36;;;;;;;3.40;0.63;;;6.60;99.90;;;;;;4958617;28;20086;-82
2023/04/25 08:42:08;;;;;;;4.35;0.63;;;7.30;99.90;;;;;;4965163;28;20078;-82
2023/04/25 08:44:35;;;;;;;9.38;1.02;;;6.40;99.90;;;;;;4925327;28;20040;-81
2023/04/25 08:47:03;;;;;;;3.80;0.80;;;4.20;99.90;;;;;;4948197;28;20051;-81
2023/04/25 08:49:31;;;;;;;2.80;0.40;;;6.20;99.90;;;;;;4957574;28;20044;-81
2023/04/25 08:52:00;;;;;;;6.97;2.38;;;6.90;99.90;;;;;;4957616;28;20047;-81
2023/04/25 08:54:28;;;;;;;5.70;2.25;;;6.10;99.90;;;;;;4960099;28;20035;-81
2023/04/25 08:56:55;;;;;;;3.53;1.00;;;6.30;99.90;;;;;;4929918;28;20058;-81
2023/04/25 08:59:22;;;;;;;2.58;0.50;;;6.10;99.90;;;;;;4967874;28;20576;-82
2023/04/25 09:01:49;;;;;;;4.75;0.90;;;8.20;99.90;;;;;;4970429;28;20057;-81
2023/04/25 09:04:15;;;;;;;4.70;0.60;;;6.20;99.90;;;;;;4962970;28;20125;-82
2023/04/25 09:06:41;;;;;;;3.67;0.45;;;6.30;99.90;;;;;;4967319;28;20054;-83
2023/04/25 09:09:10;;;;;;;2.28;0.40;;;6.30;99.90;;;;;;4946662;28;20093;-82
2023/04/25 09:11:36;;;;;;;3.97;0.70;;;8.80;99.90;;;;;;4944984;29;20047;-82
2023/04/25 09:14:23;;;;;;;5.18;0.98;;;7.60;99.90;;;;;;4945879;28;20126;-82
2023/04/25 09:16:59;;;;;;;2.65;1.10;;;8.20;99.90;;;;;;4932942;28;20566;-82
2023/04/25 09:19:29;;;;;;;8.38;0.90;;;6.70;99.90;;;;;;4945494;29;20047;-82
2023/04/25 09:21:57;;;;;;;6.22;0.68;;;6.80;99.90;;;;;;4962012;28;20055;-82
2023/04/25 09:24:49;;;;;;;6.97;1.25;;;7.00;99.90;;;;;;4964337;28;20510;-82
2023/04/25 09:27:22;;;;;;;8.02;0.90;;;7.10;99.90;;;;;;4962966;28;20546;-82
2023/04/25 09:29:55;;;;;;;4.40;1.50;;;7.40;99.90;;;;;;4962159;28;20051;-82
2023/04/25 09:32:23;;;;;;;7.68;1.02;;;7.30;99.90;;;;;;4980086;28;20043;-82
2023/04/25 09:34:51;;;;;;;6.65;1.30;;;7.40;99.90;;;;;;4963759;28;20047;-81
2023/04/25 09:37:27;;;;;;;8.13;1.77;;;7.20;99.90;;;;;;4961272;28;20103;-82
2023/04/25 09:39:55;;;;;;;11.75;1.40;;;7.00;99.90;;;;;;4961713;28;20399;-82
2023/04/25 09:42:25;;;;;;;9.48;1.55;;;6.70;99.90;;;;;;4961644;28;20471;-82
2023/04/25 09:44:53;;;;;;;13.05;2.03;;;6.60;99.90;;;;;;4961489;28;20075;-82
2023/04/25 09:47:21;;;;;;;11.48;1.50;;;6.60;99.90;;;;;;4963456;28;20042;-82
2023/04/25 09:49:47;;;;;;;8.32;1.30;;;6.70;99.90;;;;;;4963714;28;20457;-82
2023/04/25 09:52:23;;;;;;;8.52;0.82;;;7.80;99.90;;;;;;4953190;28;20162;-82
2023/04/25 09:54:50;;;;;;;7.55;1.15;;;6.90;99.90;;;;;;4962300;28;20403;-82
2023/04/25 09:57:21;;;;;;;8.88;1.70;;;7.00;99.90;;;;;;4946511;28;20058;-81
2023/04/25 09:59:49;;;;;;;6.85;1.40;;;7.10;99.90;;;;;;4956132;28;20039;-82
2023/04/25 10:02:18;;;;;;;7.03;1.13;;;7.20;99.90;;;;;;4962925;28;20117;-82
2023/04/25 10:04:47;;;;;;;6.15;1.30;;;8.60;99.90;;;;;;4943952;29;20046;-82
2023/04/25 10:07:14;;;;;;;8.32;1.45;;;7.40;99.90;;;;;;4962009;28;20051;-82
2023/04/25 10:09:40;;;;;;;11.20;1.50;;;8.90;99.90;;;;;;4962448;28;20101;-82
2023/04/25 10:12:07;;;;;;;14.07;2.17;;;10.00;99.90;;;;;;4963277;28;20051;-82
2023/04/25 10:14:34;;;;;;;9.20;1.00;;;7.70;99.90;;;;;;4961927;28;20043;-82
2023/04/25 10:17:00;;;;;;;8.20;1.15;;;7.80;99.90;;;;;;4960022;28;20079;-82
2023/04/25 10:19:27;;;;;;;6.85;1.05;;;10.50;99.90;;;;;;4964000;28;20501;-82
2023/04/25 10:22:11;;;;;;;4.75;0.60;;;9.00;99.90;;;;;;4963619;28;20138;-82
2023/04/25 10:24:38;;;;;;;6.45;0.85;;;8.20;99.90;;;;;;4975685;28;20051;-82
2023/04/25 10:27:05;;;;;;;9.65;1.35;;;8.20;99.90;;;;;;4944328;28;20055;-82
2023/04/25 10:29:31;;;;;;;5.28;1.10;;;10.30;99.90;;;;;;4963636;28;20429;-82
2023/04/25 10:31:58;;;;;;;4.65;1.05;;;8.40;99.90;;;;;;4962312;28;20046;-82
2023/04/25 10:34:43;;;;;;;5.47;0.93;;;8.40;99.90;;;;;;4960326;28;20491;-82
2023/04/25 10:37:10;;;;;;;6.88;1.00;;;6.90;99.90;;;;;;4952597;28;20066;-82
2023/04/25 10:39:37;;;;;;;8.45;1.23;;;8.30;99.90;;;;;;4983417;28;20043;-82
2023/04/25 10:42:03;;;;;;;12.63;1.42;;;10.70;99.90;;;;;;4962560;28;20121;-82
2023/04/25 10:44:30;;;;;;;4.95;0.95;;;10.10;99.90;;;;;;4959988;28;20047;-82
2023/04/25 10:46:57;;;;;;;3.35;1.10;;;8.10;99.90;;;;;;4943301;29;20442;-83
2023/04/25 10:49:36;;;;;;;4.40;0.88;;;8.50;99.90;;;;;;4962621;28;20426;-83
2023/04/25 10:52:32;;;;;;;11.40;1.48;;;8.60;99.90;;;;;;4977834;28;20415;-83
2023/04/25 10:54:58;;;;;;;7.20;1.00;;;10.90;99.90;;;;;;4948086;28;20051;-83
2023/04/25 10:57:31;;;;;;;11.40;1.25;;;8.50;99.90;;;;;;4961880;28;20513;-82
2023/04/25 11:00:05;;;;;;;11.35;1.10;;;8.30;99.90;;;;;;4962224;28;20045;-82
2023/04/25 11:02:31;;;;;;;10.70;1.55;;;10.30;99.90;;;;;;4943461;28;20048;-83
2023/04/25 11:04:57;;;;;;;12.82;2.17;;;7.70;99.90;;;;;;4943376;29;20051;-83
2023/04/25 11:07:26;;;;;;;7.25;1.05;;;7.80;99.90;;;;;;4962699;28;20059;-83
2023/04/25 11:09:52;;;;;;;6.40;1.30;;;7.80;99.90;;;;;;4963243;28;20390;-83
2023/04/25 11:12:18;;;;;;;8.00;1.42;;;9.50;99.90;;;;;;4961563;28;20050;-83
2023/04/25 11:14:44;;;;;;;10.50;3.05;;;8.20;99.90;;;;;;4958618;28;20570;-83
2023/04/25 11:17:10;;;;;;;7.45;1.85;;;10.80;99.90;;;;;;4942917;29;20047;-83
2023/04/25 11:19:36;;;;;;;4.20;1.15;;;8.60;99.90;;;;;;4960178;28;20488;-84
2023/04/25 11:22:03;;;;;;;6.03;1.02;;;8.80;99.90;;;;;;4959218;28;20055;-83
2023/04/25 11:24:30;;;;;;;8.98;1.13;;;8.90;99.90;;;;;;4946327;28;20050;-83
2023/04/25 11:26:58;;;;;;;10.23;1.05;;;8.90;99.90;;;;;;4963470;28;20372;-83
2023/04/25 11:29:27;;;;;;;9.98;1.33;;;9.80;99.90;;;;;;4975294;28;20043;-84
2023/04/25 11:31:55;;;;;;;9.93;1.45;;;11.10;99.90;;;;;;4959224;28;20417;-84
2023/04/25 11:34:22;;;;;;;7.47;1.00;;;11.50;99.90;;;;;;4961549;28;20058;-83
2023/04/25 11:36:48;;;;;;;6.18;0.95;;;9.30;99.90;;;;;;4970418;28;20402;-84
2023/04/25 11:39:15;;;;;;;3.65;0.93;;;11.20;99.90;;;;;;4953120;28;20054;-83
2023/04/25 11:41:41;;;;;;;4.25;0.68;;;9.30;99.90;;;;;;4959459;28;20063;-83
2023/04/25 11:44:07;;;;;;;4.25;1.25;;;9.10;99.90;;;;;;4960240;28;20043;-83
2023/04/25 11:46:36;;;;;;;15.48;5.28;;;9.10;99.90;;;;;;4963534;28;20407;-82
2023/04/25 11:49:02;;;;;;;6.97;1.17;;;10.50;99.90;;;;;;4962568;28;20054;-83
2023/04/25 11:51:28;;;;;;;4.97;0.90;;;9.00;99.90;;;;;;4960668;28;20055;-83
2023/04/25 11:53:53;;;;;;;7.13;1.30;;;10.30;99.90;;;;;;4942903;29;20047;-83
2023/04/25 11:56:20;;;;;;;5.63;0.98;;;9.30;99.90;;;;;;4959716;28;20407;-83
2023/04/25 11:58:55;;;;;;;4.65;0.90;;;9.50;99.90;;;;;;4978391;28;20051;-83
2023/04/25 12:01:35;;;;;;;9.50;1.17;;;11.60;99.90;;;;;;4960072;28;20050;-83
2023/04/25 12:04:11;;;;;;;10.15;1.75;;;9.70;99.90;;;;;;4941712;29;20059;-84
2023/04/25 12:06:41;;;;;;;8.15;1.50;;;9.80;99.90;;;;;;4958056;28;20052;-83
2023/04/25 12:09:13;;;;;;;8.98;1.42;;;9.80;99.90;;;;;;4958890;28;20050;-83
2023/04/25 12:11:46;;;;;;;7.82;1.25;;;9.50;99.90;;;;;;4958951;28;20051;-84
2023/04/25 12:14:12;;;;;;;3.88;0.68;;;9.30;99.90;;;;;;4973239;28;20062;-83
2023/04/25 12:16:43;;;;;;;6.63;0.70;;;9.10;99.90;;;;;;4967484;28;20568;-84
2023/04/25 12:19:09;;;;;;;5.75;1.02;;;11.20;99.90;;;;;;4961918;28;20086;-83
2023/04/25 12:21:35;;;;;;;5.28;0.70;;;9.10;99.90;;;;;;4950034;28;20498;-84
2023/04/25 12:24:25;;;;;;;6.88;1.50;;;9.00;99.90;;;;;;4957664;28;20043;-83
2023/04/25 12:27:01;;;;;;;8.15;2.10;;;9.10;99.90;;;;;;4942652;29;20083;-83
2023/04/25 12:29:29;;;;;;;11.30;1.88;;;9.20;99.90;;;;;;4943688;28;20185;-83
2023/04/25 12:31:55;;;;;;;7.88;1.23;;;9.00;99.90;;;;;;4959986;28;20055;-83
2023/04/25 12:34:22;;;;;;;11.25;1.88;;;9.00;99.90;;;;;;4976456;28;20047;-83
2023/04/25 12:36:49;;;;;;;8.75;1.23;;;8.90;99.90;;;;;;4942197;29;20122;-83
2023/04/25 12:39:23;;;;;;;5.05;1.17;;;9.00;99.90;;;;;;4957537;28;20384;-84
2023/04/25 12:41:53;;;;;;;4.13;0.70;;;11.30;99.90;;;;;;4977271;28;20114;-83
2023/04/25 12:44:20;;;;;;;3.55;0.65;;;10.80;99.90;;;;;;4960261;28;20066;-83
2023/04/25 12:46:47;;;;;;;12.65;1.60;;;8.10;99.90;;;;;;4957248;28;20047;-83
2023/04/25 12:49:12;;;;;;;10.38;1.67;;;8.60;99.90;;;;;;4941709;29;20503;-83
2023/04/25 12:51:38;;;;;;;8.55;1.60;;;8.50;99.90;;;;;;4959926;28;20104;-82
2023/04/25 12:54:06;;;;;;;3.72;0.73;;;10.10;99.90;;;;;;4960764;28;20143;-83